Westmark, Nebraska
Current Conditions -  °F | °C
As of 7:55 PM on Thursday 18 Dec 2014 (Local Time) from KHDE Reporting Station
Overcast Overcast  
Wind Chill: 23°   Ceiling: 800
Heat Index: 28°   Visibility: 10mi
Dew Point: 26°   Wind: 5mph
Humidity: 90%   Direction: 250°WSW
Pressure: 30.15"   Gusts: NA
Location:  40.5759°N, 99.537°W
Report Text: KHDE 190155Z AUTO 25004KT 10SM OVC008 M02/M03 A3015 RMK AO2 T10201035
Loading
Personal Weather Stations






























Interactive Weather Map New forecast layout! Learn more

10-Day Weather Forecast

Advertisements
Track Severe Weather on mobile